Time;durP1;ratioP1;P1;durP2;ratioP2;P2;SDS_P1;SDS_P2;PMS_P1;PMS_P2;Temp;Humidity;BMP_temperature;BMP_pressure;BME280_temperature;BME280_humidity;BME280_pressure;Samples;Min_cycle;Max_cycle;Signal;HPM_P1;HPM_P2
2022/05/17 00:00:50;;;;;;;12.02;3.15;;;;;;;11.07;100.00;98937.66;5044032;28;20021;-71
2022/05/17 00:03:16;;;;;;;7.80;2.45;;;;;;;11.08;100.00;98929.72;5043983;28;20062;-71
2022/05/17 00:05:43;;;;;;;4.13;2.40;;;;;;;11.05;100.00;98928.88;5044015;28;20344;-71
2022/05/17 00:08:09;;;;;;;5.25;2.85;;;;;;;11.04;100.00;98935.91;5043547;28;20025;-71
2022/05/17 00:10:35;;;;;;;4.53;2.80;;;;;;;11.07;100.00;98937.66;5045810;28;20037;-71
2022/05/17 00:13:00;;;;;;;4.28;2.38;;;;;;;11.05;100.00;98939.44;5062700;28;20092;-71
2022/05/17 00:15:26;;;;;;;4.03;2.47;;;;;;;11.03;100.00;98936.81;5063106;28;20029;-71
2022/05/17 00:17:53;;;;;;;5.85;2.78;;;;;;;10.98;100.00;98930.75;5056151;28;20110;-71
2022/05/17 00:20:19;;;;;;;3.45;1.73;;;;;;;10.93;100.00;98925.56;5043895;28;20028;-71
2022/05/17 00:22:44;;;;;;;3.75;2.20;;;;;;;10.99;100.00;98924.59;5043823;28;20221;-71
2022/05/17 00:25:14;;;;;;;4.20;2.30;;;;;;;10.90;100.00;98919.47;5043821;28;20072;-71
2022/05/17 00:27:39;;;;;;;4.05;2.22;;;;;;;10.95;100.00;98928.19;5046050;28;20325;-71
2022/05/17 00:30:07;;;;;;;6.68;2.33;;;;;;;10.98;100.00;98922.84;5056839;28;20024;-71
2022/05/17 00:32:32;;;;;;;3.70;2.35;;;;;;;11.01;100.00;98922.78;5063091;28;20035;-71
2022/05/17 00:34:58;;;;;;;10.05;2.83;;;;;;;10.98;100.00;98928.09;5062867;28;20228;-71
2022/05/17 00:37:23;;;;;;;4.53;2.30;;;;;;;10.94;100.00;98935.22;5063148;28;20021;-71
2022/05/17 00:39:49;;;;;;;2.90;2.03;;;;;;;10.87;100.00;98924.78;5061201;28;20028;-71
2022/05/17 00:42:14;;;;;;;2.53;1.67;;;;;;;10.83;100.00;98933.63;5043684;28;20029;-71
2022/05/17 00:44:42;;;;;;;3.53;2.00;;;;;;;10.70;100.00;98927.69;5043611;28;20087;-71
2022/05/17 00:47:13;;;;;;;3.05;2.03;;;;;;;10.70;100.00;98921.56;5043688;28;20060;-71
2022/05/17 00:49:43;;;;;;;3.05;2.13;;;;;;;10.70;100.00;98921.56;5056730;28;20045;-71
2022/05/17 00:52:26;;;;;;;3.00;1.75;;;;;;;10.73;100.00;98926.78;5062173;28;20028;-71
2022/05/17 00:54:54;;;;;;;2.33;1.90;;;;;;;10.75;100.00;98930.25;5049794;28;20059;-71
2022/05/17 00:57:28;;;;;;;5.95;2.30;;;;;;;10.76;100.00;98924.09;5061903;28;20029;-71
2022/05/17 00:59:57;;;;;;;2.95;1.90;;;;;;;10.75;100.00;98924.97;5043540;28;20028;-71
2022/05/17 01:02:24;;;;;;;4.25;2.28;;;;;;;10.59;100.00;98928.72;5043461;28;20029;-71
2022/05/17 01:04:49;;;;;;;13.38;2.00;;;;;;;10.47;100.00;98923.63;5043511;28;20032;-71
2022/05/17 01:07:22;;;;;;;4.53;2.17;;;;;;;10.48;100.00;98933.28;5043373;28;20029;-71
2022/05/17 01:09:48;;;;;;;7.35;2.60;;;;;;;10.48;100.00;98935.94;5043312;28;20022;-71
2022/05/17 01:12:13;;;;;;;3.80;2.35;;;;;;;10.48;100.00;98933.28;5043384;28;20044;-71
2022/05/17 01:14:58;;;;;;;4.18;2.50;;;;;;;10.41;100.00;98934.28;5043362;28;20029;-71
2022/05/17 01:17:32;;;;;;;3.72;2.45;;;;;;;10.32;100.00;98940.50;5050894;28;20194;-71
2022/05/17 01:19:59;;;;;;;4.45;1.88;;;;;;;10.29;100.00;98934.44;5062620;28;20020;-71
2022/05/17 01:22:24;;;;;;;3.58;2.03;;;;;;;10.30;100.00;98939.69;5062752;28;20096;-71
2022/05/17 01:24:50;;;;;;;3.45;2.28;;;;;;;10.39;100.00;98936.94;5045347;28;20221;-71
2022/05/17 01:27:32;;;;;;;3.30;1.90;;;;;;;10.23;100.00;98945.03;5046367;28;20225;-71
2022/05/17 01:29:58;;;;;;;2.30;1.77;;;;;;;10.27;100.00;98946.72;5046747;28;20088;-71
2022/05/17 01:32:23;;;;;;;2.53;2.00;;;;;;;10.31;100.00;98943.16;5046714;28;20029;-71
2022/05/17 01:34:49;;;;;;;3.83;2.17;;;;;;;10.13;100.00;98943.44;5046749;28;20096;-71
2022/05/17 01:37:16;;;;;;;3.10;1.77;;;;;;;10.15;100.00;98942.50;5046603;28;20021;-71
2022/05/17 01:39:42;;;;;;;4.50;1.67;;;;;;;10.19;100.00;98949.47;5046557;28;20009;-71
2022/05/17 01:42:10;;;;;;;2.38;1.88;;;;;;;10.10;100.00;98938.19;5049090;28;20021;-71
2022/05/17 01:44:36;;;;;;;3.10;1.85;;;;;;;10.12;100.00;98946.91;5066720;28;20216;-71
2022/05/17 01:47:02;;;;;;;2.90;2.00;;;;;;;10.10;100.00;98943.47;5066678;28;20025;-71
2022/05/17 01:49:27;;;;;;;2.53;1.70;;;;;;;10.13;100.00;98935.53;5066198;28;20082;-71
2022/05/17 01:51:53;;;;;;;2.15;1.70;;;;;;;10.15;100.00;98937.25;5066312;28;20036;-71
2022/05/17 01:54:18;;;;;;;3.28;2.08;;;;;;;10.17;100.00;98939.84;5066258;28;20028;-71
2022/05/17 01:56:43;;;;;;;5.53;1.98;;;;;;;10.09;100.00;98932.06;5066230;28;20035;-71
2022/05/17 01:59:09;;;;;;;3.13;2.15;;;;;;;10.10;100.00;98932.94;5066184;28;20049;-71
2022/05/17 02:01:34;;;;;;;2.85;2.00;;;;;;;10.16;100.00;98932.88;5066146;28;20017;-71
2022/05/17 02:03:59;;;;;;;3.88;1.92;;;;;;;10.03;100.00;98931.25;5050302;28;20033;-71
2022/05/17 02:06:25;;;;;;;7.10;2.50;;;;;;;9.99;100.00;98934.78;5046079;28;20021;-71
2022/05/17 02:08:50;;;;;;;3.80;2.40;;;;;;;10.05;100.00;98929.44;5046106;28;20132;-71
2022/05/17 02:11:16;;;;;;;2.75;2.25;;;;;;;9.88;100.00;98926.16;5045933;28;20024;-71
2022/05/17 02:13:41;;;;;;;3.50;2.10;;;;;;;9.85;100.00;98926.19;5046029;28;20034;-71
2022/05/17 02:16:09;;;;;;;2.60;1.65;;;;;;;9.95;100.00;98922.56;5047018;28;20024;-71
2022/05/17 02:18:35;;;;;;;3.22;2.33;;;;;;;9.83;100.00;98922.72;5056869;28;20021;-71
2022/05/17 02:21:00;;;;;;;4.82;2.60;;;;;;;9.76;100.00;98921.06;5045864;28;20040;-71
2022/05/17 02:23:26;;;;;;;3.95;2.53;;;;;;;9.79;100.00;98921.00;5045768;28;20045;-71
2022/05/17 02:25:51;;;;;;;3.13;2.20;;;;;;;9.80;100.00;98923.63;5045761;28;20263;-71
2022/05/17 02:28:16;;;;;;;1.88;1.60;;;;;;;9.88;100.00;98926.16;5048999;28;20028;-71
2022/05/17 02:30:43;;;;;;;3.88;2.10;;;;;;;9.90;100.00;98921.78;5046827;28;20067;-71
2022/05/17 02:33:09;;;;;;;8.35;2.03;;;;;;;9.77;100.00;98917.53;5055602;28;20209;-71
2022/05/17 02:35:35;;;;;;;2.65;1.63;;;;;;;9.49;100.00;98931.88;5051620;28;20075;-71
2022/05/17 02:38:00;;;;;;;2.17;1.80;;;;;;;9.59;100.00;98930.88;5051097;28;20029;-71
2022/05/17 02:40:25;;;;;;;2.75;2.15;;;;;;;9.64;100.00;98936.94;5045512;28;20018;-71
2022/05/17 02:42:51;;;;;;;2.95;2.03;;;;;;;9.64;100.00;98942.19;5045475;28;20213;-71
2022/05/17 02:45:16;;;;;;;3.03;1.75;;;;;;;9.61;100.00;98937.88;5049003;28;20020;-71
2022/05/17 02:47:42;;;;;;;3.17;2.00;;;;;;;9.70;100.00;98942.16;5065382;28;20043;-71
2022/05/17 02:50:09;;;;;;;3.25;2.08;;;;;;;9.61;100.00;98936.97;5065190;28;20032;-71
2022/05/17 02:52:35;;;;;;;2.70;1.73;;;;;;;9.58;100.00;98943.16;5065140;28;20029;-71
2022/05/17 02:55:00;;;;;;;3.53;1.75;;;;;;;9.49;100.00;98942.38;5065152;28;20193;-71
2022/05/17 02:57:25;;;;;;;2.58;1.80;;;;;;;9.56;100.00;98936.19;5065079;28;20070;-71
2022/05/17 02:59:51;;;;;;;1.83;1.27;;;;;;;9.50;100.00;98937.13;5065084;28;20204;-71
2022/05/17 03:02:16;;;;;;;2.72;1.60;;;;;;;9.44;100.00;98933.66;5064980;28;20075;-71
2022/05/17 03:04:41;;;;;;;5.10;1.77;;;;;;;9.56;100.00;98946.69;5053995;28;20025;-71
2022/05/17 03:07:06;;;;;;;4.03;1.70;;;;;;;9.56;100.00;98936.19;5044961;28;20028;-71
2022/05/17 03:09:32;;;;;;;2.05;1.73;;;;;;;9.60;100.00;98937.88;5044832;28;20316;-71
2022/05/17 03:11:57;;;;;;;3.15;1.92;;;;;;;9.46;100.00;98938.00;5044872;28;20029;-71
2022/05/17 03:14:23;;;;;;;3.50;2.30;;;;;;;9.50;100.00;98944.13;5044794;28;20340;-71
2022/05/17 03:16:49;;;;;;;3.17;2.05;;;;;;;9.56;100.00;98938.81;5044765;28;20032;-71
2022/05/17 03:19:14;;;;;;;3.55;2.00;;;;;;;9.52;100.00;98942.34;5052581;28;20021;-71
2022/05/17 03:21:40;;;;;;;3.45;1.98;;;;;;;9.42;100.00;98940.69;5064616;28;20213;-71
2022/05/17 03:24:06;;;;;;;3.30;2.20;;;;;;;9.41;100.00;98944.22;5064585;28;20028;-71
2022/05/17 03:26:31;;;;;;;4.50;2.10;;;;;;;9.36;100.00;98946.03;5061529;28;20056;-71
2022/05/17 03:28:58;;;;;;;4.63;1.67;;;;;;;9.45;100.00;98941.53;5044576;28;20035;-71
2022/05/17 03:31:24;;;;;;;3.55;1.90;;;;;;;9.39;100.00;98949.47;5044441;28;20213;-71
2022/05/17 03:33:49;;;;;;;2.47;1.77;;;;;;;9.42;100.00;98956.44;5044517;28;20025;-71
2022/05/17 03:36:14;;;;;;;7.50;2.20;;;;;;;9.37;100.00;98953.00;5044410;28;20025;-71
2022/05/17 03:38:39;;;;;;;11.35;2.10;;;;;;;9.34;100.00;98947.78;5044399;28;20021;-71
2022/05/17 03:41:05;;;;;;;4.32;2.05;;;;;;;9.40;100.00;98955.59;5044324;28;20021;-71
2022/05/17 03:43:30;;;;;;;2.53;1.83;;;;;;;9.28;100.00;98958.34;5044268;28;20036;-71
2022/05/17 03:45:57;;;;;;;2.15;1.52;;;;;;;9.32;100.00;98955.69;5044321;28;20029;-71
2022/05/17 03:48:24;;;;;;;2.53;1.63;;;;;;;9.18;100.00;98959.31;5043365;28;20044;-71
2022/05/17 03:50:49;;;;;;;2.55;1.67;;;;;;;9.27;100.00;98961.88;5044189;28;20216;-71
2022/05/17 03:53:15;;;;;;;1.63;1.40;;;;;;;9.30;100.00;98967.09;5044148;28;20032;-71
2022/05/17 03:55:41;;;;;;;2.03;1.35;;;;;;;9.39;100.00;98972.22;5044146;28;20067;-71
2022/05/17 03:58:06;;;;;;;2.45;1.67;;;;;;;9.35;100.00;98971.41;5044321;28;20029;-71
2022/05/17 04:00:32;;;;;;;6.40;1.90;;;;;;;9.43;100.00;98971.34;5044081;28;20017;-71
2022/05/17 04:02:57;;;;;;;1.83;1.45;;;;;;;9.39;100.00;98972.22;5044016;28;20029;-71
2022/05/17 04:05:23;;;;;;;2.92;2.03;;;;;;;9.38;100.00;98965.25;5043980;28;20021;-71
2022/05/17 04:07:48;;;;;;;2.97;2.00;;;;;;;9.43;100.00;98969.56;5059050;28;20021;-71
2022/05/17 04:10:16;;;;;;;3.17;1.98;;;;;;;9.53;100.00;98971.25;5043890;28;20021;-71
2022/05/17 04:12:41;;;;;;;2.72;1.50;;;;;;;9.61;100.00;98968.50;5043956;28;20048;-71
2022/05/17 04:15:11;;;;;;;2.10;1.35;;;;;;;9.70;100.00;98978.94;5043909;28;20221;-71
2022/05/17 04:17:36;;;;;;;1.40;1.30;;;;;;;9.71;100.00;98976.28;5043897;28;20244;-71
2022/05/17 04:20:03;;;;;;;2.03;1.40;;;;;;;9.79;100.00;98984.09;5043882;28;20027;-71
2022/05/17 04:22:28;;;;;;;3.60;1.70;;;;;;;9.92;100.00;98975.19;5043880;28;20217;-71
2022/05/17 04:24:57;;;;;;;1.75;1.33;;;;;;;9.95;100.00;98975.16;5043814;28;20088;-71
2022/05/17 04:27:23;;;;;;;1.80;1.50;;;;;;;10.16;100.00;98980.22;5043841;28;20025;-71
2022/05/17 04:29:49;;;;;;;3.55;1.23;;;;;;;10.27;99.12;98983.56;5043772;28;20033;-71
2022/05/17 04:32:15;;;;;;;1.52;1.40;;;;;;;10.34;98.32;98974.69;5043762;28;20037;-71
2022/05/17 04:34:40;;;;;;;2.63;1.38;;;;;;;10.34;97.87;98978.22;5043756;28;20088;-71
2022/05/17 04:37:06;;;;;;;2.05;1.25;;;;;;;10.37;97.51;98979.91;5044011;28;20048;-71
2022/05/17 04:39:32;;;;;;;1.63;1.20;;;;;;;10.44;98.16;98986.88;5043672;28;20026;-71
2022/05/17 04:41:58;;;;;;;2.10;1.30;;;;;;;10.58;98.63;98996.31;5043674;28;20025;-71
2022/05/17 04:44:23;;;;;;;1.58;1.10;;;;;;;10.58;97.51;98987.53;5043746;28;20126;-71
2022/05/17 04:46:49;;;;;;;1.77;1.25;;;;;;;10.81;96.45;98988.97;5043680;28;20051;-71
2022/05/17 04:49:14;;;;;;;1.52;1.17;;;;;;;11.18;95.12;98993.66;5043455;28;20033;-71
2022/05/17 04:51:39;;;;;;;4.15;1.38;;;;;;;11.68;93.63;98997.19;5043530;28;20021;-71
2022/05/17 04:54:05;;;;;;;2.45;1.38;;;;;;;12.28;91.91;98990.75;5043596;28;20025;-71
2022/05/17 04:56:30;;;;;;;1.75;1.42;;;;;;;12.83;90.62;98995.72;5043528;28;20051;-71
2022/05/17 04:58:55;;;;;;;2.28;1.75;;;;;;;13.01;89.49;98993.53;5043498;28;20124;-71
2022/05/17 05:01:21;;;;;;;2.22;1.58;;;;;;;13.10;90.14;98991.59;5047070;28;20055;-71
2022/05/17 05:03:46;;;;;;;2.70;1.90;;;;;;;13.25;88.70;98996.53;5047192;28;20017;-71
2022/05/17 05:06:12;;;;;;;3.72;1.75;;;;;;;13.53;87.55;98994.91;5047242;28;20029;-71
2022/05/17 05:08:37;;;;;;;3.25;1.90;;;;;;;13.72;85.70;98990.88;5047196;28;20025;-71
2022/05/17 05:11:02;;;;;;;2.08;1.60;;;;;;;13.76;85.15;98997.88;5047080;28;20021;-71
2022/05/17 05:13:28;;;;;;;3.03;1.75;;;;;;;13.75;85.18;98991.69;5047110;28;20029;-71
2022/05/17 05:15:56;;;;;;;2.88;1.70;;;;;;;13.89;86.50;98994.84;5047320;28;20198;-71
2022/05/17 05:18:22;;;;;;;3.85;1.80;;;;;;;14.30;85.87;98996.41;5047074;28;20031;-71
2022/05/17 05:20:47;;;;;;;3.20;2.17;;;;;;;14.83;84.32;99003.63;5046953;28;20022;-71
2022/05/17 05:23:13;;;;;;;4.55;1.90;;;;;;;15.30;83.76;99002.13;5046918;28;20025;-71
2022/05/17 05:25:39;;;;;;;4.93;1.98;;;;;;;15.61;81.74;99011.72;5046881;28;20217;-71
2022/05/17 05:28:07;;;;;;;4.00;1.83;;;;;;;15.70;80.74;98999.94;5046809;28;20025;-71
2022/05/17 05:30:33;;;;;;;2.80;2.13;;;;;;;15.89;80.71;99001.91;5046974;28;20025;-71
2022/05/17 05:32:58;;;;;;;2.97;1.92;;;;;;;16.13;79.63;99006.34;5046730;28;20067;-71
2022/05/17 05:35:25;;;;;;;2.42;1.73;;;;;;;16.30;79.72;99013.72;5046751;28;20029;-71
2022/05/17 05:37:51;;;;;;;2.42;1.75;;;;;;;16.64;78.64;99015.09;5046952;28;20017;-71
2022/05/17 05:40:17;;;;;;;4.50;1.95;;;;;;;16.90;78.35;99017.63;5046589;28;20041;-71
2022/05/17 05:42:42;;;;;;;2.97;2.10;;;;;;;16.69;78.37;99017.59;5046580;28;20213;-71
2022/05/17 05:45:09;;;;;;;3.92;2.00;;;;;;;16.89;77.96;99021.22;5046496;28;20340;-71
2022/05/17 05:47:34;;;;;;;2.75;1.85;;;;;;;16.70;78.38;99019.31;5046307;28;20021;-71
2022/05/17 05:50:00;;;;;;;4.20;2.00;;;;;;;16.24;79.25;99012.16;5046382;28;20025;-71
2022/05/17 05:52:26;;;;;;;3.63;2.60;;;;;;;16.36;82.04;99022.31;5046397;28;20340;-71
2022/05/17 05:54:51;;;;;;;3.30;2.10;;;;;;;16.31;81.27;99018.97;5046330;28;20096;-71
2022/05/17 05:57:16;;;;;;;3.10;2.30;;;;;;;15.99;81.68;99023.69;5045119;28;20079;-71
2022/05/17 05:59:42;;;;;;;4.25;2.17;;;;;;;16.54;82.98;99029.66;5046234;28;20093;-71
2022/05/17 06:02:08;;;;;;;4.10;2.45;;;;;;;17.17;81.07;99027.19;5046136;28;20078;-71
2022/05/17 06:04:34;;;;;;;5.13;2.20;;;;;;;17.77;78.31;99033.63;5045994;28;20029;-71
2022/05/17 06:07:00;;;;;;;3.88;2.55;;;;;;;17.74;78.02;99033.78;5046109;28;20084;-71
2022/05/17 06:09:26;;;;;;;4.35;2.70;;;;;;;17.22;80.13;99030.53;5045909;28;20032;-71
2022/05/17 06:11:52;;;;;;;9.52;2.78;;;;;;;17.37;79.84;99022.88;5045292;28;20348;-71
2022/05/17 06:14:19;;;;;;;4.95;2.90;;;;;;;17.77;79.60;99034.53;5046038;28;20086;-71
2022/05/17 06:16:44;;;;;;;5.25;3.10;;;;;;;17.48;81.49;99032.19;5045946;28;20025;-71
2022/05/17 06:19:09;;;;;;;4.03;2.58;;;;;;;18.21;79.90;99027.28;5045864;28;20044;-71
2022/05/17 06:21:34;;;;;;;3.80;2.67;;;;;;;18.36;79.22;99026.63;5045863;28;20076;-71
2022/05/17 06:24:00;;;;;;;4.28;2.83;;;;;;;18.65;79.33;99039.53;5045817;28;20209;-71
2022/05/17 06:26:25;;;;;;;4.55;3.05;;;;;;;18.79;79.54;99032.66;5045761;28;20321;-71
2022/05/17 06:28:50;;;;;;;4.13;2.80;;;;;;;18.68;81.34;99039.41;5045722;28;20347;-71
2022/05/17 06:31:16;;;;;;;4.55;3.15;;;;;;;18.95;80.29;99036.34;5045587;28;20031;-71
2022/05/17 06:33:41;;;;;;;4.05;2.85;;;;;;;19.13;78.94;99037.28;5045661;28;20198;-71
2022/05/17 06:36:06;;;;;;;6.40;3.28;;;;;;;19.32;78.76;99038.16;5044420;28;20083;-71
2022/05/17 06:38:33;;;;;;;5.88;3.25;;;;;;;19.38;77.49;99045.88;5045638;28;20056;-71
2022/05/17 06:40:58;;;;;;;5.88;2.78;;;;;;;19.30;77.28;99044.53;5045530;28;20041;-71
2022/05/17 06:43:24;;;;;;;4.22;3.00;;;;;;;19.33;76.79;99041.72;5045434;28;20025;-71
2022/05/17 06:45:49;;;;;;;6.20;3.70;;;;;;;19.35;78.96;99043.38;5045524;28;20025;-71
2022/05/17 06:48:15;;;;;;;3.05;2.42;;;;;;;19.68;77.03;99044.38;5045200;28;20383;-71
2022/05/17 06:50:40;;;;;;;6.28;3.63;;;;;;;20.03;76.92;99051.50;5045225;28;20317;-71
2022/05/17 06:53:07;;;;;;;8.75;3.38;;;;;;;20.45;76.42;99049.34;5045246;28;20021;-71
2022/05/17 06:55:34;;;;;;;7.15;3.33;;;;;;;21.26;73.75;99054.72;5045197;28;20067;-71
2022/05/17 06:57:59;;;;;;;12.52;3.75;;;;;;;21.47;72.37;99058.00;5045183;28;20021;-71
2022/05/17 07:00:25;;;;;;;5.05;3.17;;;;;;;21.58;70.23;99050.25;5045126;28;20217;-72
2022/05/17 07:02:50;;;;;;;4.60;3.13;;;;;;;22.13;71.34;99049.66;5045274;28;20037;-72
2022/05/17 07:05:16;;;;;;;6.70;3.17;;;;;;;22.61;70.53;99049.44;5045015;28;20256;-72
2022/05/17 07:07:41;;;;;;;4.63;2.92;;;;;;;23.13;68.05;99055.09;5044982;28;20028;-71
2022/05/17 07:15:42;;;;;;;6.82;3.75;;;;;;;24.23;63.91;99056.75;5044802;28;20025;-71
2022/05/17 07:18:09;;;;;;;4.85;3.20;;;;;;;24.08;67.39;99047.03;5045056;28;20021;-71
2022/05/17 07:20:34;;;;;;;6.50;3.05;;;;;;;24.90;64.94;99045.75;5044686;28;20029;-71
2022/05/17 07:22:59;;;;;;;4.32;2.83;;;;;;;25.46;62.55;99052.50;5044654;28;20025;-71
2022/05/17 07:25:25;;;;;;;7.60;3.40;;;;;;;25.90;63.37;99054.59;5044625;28;20092;-72
2022/05/17 07:27:51;;;;;;;5.00;2.95;;;;;;;25.90;61.46;99049.22;5044638;28;20075;-72
2022/05/17 07:30:16;;;;;;;5.95;3.47;;;;;;;26.14;60.29;99040.19;5044486;28;20025;-72
2022/05/17 07:32:42;;;;;;;6.40;3.03;;;;;;;26.40;61.26;99035.47;5044515;28;20010;-72
2022/05/17 07:35:07;;;;;;;13.18;3.15;;;;;;;25.32;60.11;99033.78;5044388;28;20084;-72
2022/05/17 07:37:36;;;;;;;4.68;3.03;;;;;;;25.62;62.34;99033.38;5044429;28;20071;-72
2022/05/17 07:40:03;;;;;;;4.78;2.78;;;;;;;26.23;57.22;99034.06;5044403;28;20339;-72
2022/05/17 07:42:28;;;;;;;4.00;2.72;;;;;;;26.32;58.47;99027.13;5044341;28;20321;-72
2022/05/17 07:44:54;;;;;;;6.90;2.83;;;;;;;26.38;53.66;99032.03;5044342;28;20021;-72
2022/05/17 07:47:19;;;;;;;4.93;2.58;;;;;;;25.29;54.90;99021.38;5044178;28;20462;-72
2022/05/17 07:49:45;;;;;;;7.95;3.20;;;;;;;25.51;55.62;99027.91;5044066;28;20363;-72
2022/05/17 07:52:13;;;;;;;6.95;2.65;;;;;;;25.25;55.30;99027.94;5044188;28;20021;-72
2022/05/17 07:54:41;;;;;;;6.05;2.97;;;;;;;25.80;55.37;99034.69;5044352;28;20117;-72
2022/05/17 07:57:06;;;;;;;6.13;3.20;;;;;;;25.25;55.54;99036.03;5044181;28;20221;-72
2022/05/17 07:59:32;;;;;;;5.10;2.50;;;;;;;25.63;55.64;99035.09;5044119;28;20068;-72
2022/05/17 08:01:57;;;;;;;2.97;2.30;;;;;;;25.77;55.08;99029.53;5043982;28;20216;-72
2022/05/17 08:04:29;;;;;;;2.35;1.77;;;;;;;25.75;54.82;99031.50;5044091;28;20064;-72
2022/05/17 08:06:56;;;;;;;7.05;2.30;;;;;;;25.28;53.86;99034.97;5044066;28;20031;-72
2022/05/17 08:09:23;;;;;;;3.88;2.20;;;;;;;25.54;52.06;99027.69;5044017;28;20041;-72
2022/05/17 08:11:49;;;;;;;6.18;2.10;;;;;;;25.37;53.12;99037.00;5044214;28;20071;-72
2022/05/17 08:14:15;;;;;;;7.97;2.47;;;;;;;26.16;52.52;99032.81;5043981;28;20017;-72
2022/05/17 08:16:42;;;;;;;5.50;2.85;;;;;;;26.25;53.45;99036.66;5043905;28;20021;-72
2022/05/17 08:19:09;;;;;;;5.72;2.60;;;;;;;25.81;51.25;99033.75;5044157;28;20304;-72
2022/05/17 08:21:34;;;;;;;4.78;2.55;;;;;;;26.03;53.04;99031.16;5043851;28;20018;-72
2022/05/17 08:23:59;;;;;;;3.78;2.50;;;;;;;26.78;51.24;99041.50;5043889;28;20040;-72
2022/05/17 08:29:10;;;;;;;5.22;2.40;;;;;;;25.67;52.58;99029.38;5043787;28;20023;-72
2022/05/17 08:31:35;;;;;;;4.10;2.28;;;;;;;26.21;51.32;99030.66;5043719;28;20337;-72
2022/05/17 08:34:01;;;;;;;3.25;2.45;;;;;;;27.08;52.18;99033.66;5043786;28;20032;-72
2022/05/17 08:36:27;;;;;;;2.80;2.20;;;;;;;26.95;51.12;99025.69;5047622;28;20025;-72
2022/05/17 08:38:52;;;;;;;8.02;2.60;;;;;;;27.58;51.84;99037.72;5047890;28;20313;-72
2022/05/17 08:41:26;;;;;;;5.07;2.67;;;;;;;27.85;49.71;99035.44;5047754;28;20040;-72
2022/05/17 08:44:20;;;;;;;6.90;2.80;;;;;;;27.96;48.51;99033.59;5047759;28;20029;-72
2022/05/17 08:47:06;;;;;;;5.40;2.53;;;;;;;27.71;48.07;99033.88;5046411;28;20044;-72
2022/05/17 08:49:42;;;;;;;3.47;2.28;;;;;;;26.53;51.07;99028.16;5047394;28;20045;-72
2022/05/17 08:52:13;;;;;;;5.28;2.08;;;;;;;27.11;51.29;99022.59;5047548;28;20237;-72
2022/05/17 08:54:48;;;;;;;4.53;2.65;;;;;;;27.02;50.10;99028.75;5047493;28;20025;-72
2022/05/17 08:57:25;;;;;;;2.90;2.22;;;;;;;27.41;49.26;99020.16;5047434;28;20029;-72
2022/05/17 08:59:50;;;;;;;3.58;2.60;;;;;;;27.43;49.69;99023.63;5047657;28;20060;-72
2022/05/17 09:02:24;;;;;;;6.47;2.45;;;;;;;27.25;49.97;99014.28;5047242;28;20025;-72
2022/05/17 09:05:20;;;;;;;9.07;2.88;;;;;;;27.85;48.91;99020.09;5047576;28;20018;-72
2022/05/17 09:08:00;;;;;;;5.20;2.47;;;;;;;26.96;48.80;99013.03;5047239;28;20029;-72
2022/05/17 09:10:38;;;;;;;7.47;2.95;;;;;;;25.66;49.81;99003.38;5047139;28;20017;-72
2022/05/17 09:13:34;;;;;;;3.72;2.42;;;;;;;27.20;47.49;99016.47;5047149;28;20056;-72
2022/05/17 09:16:00;;;;;;;5.22;2.72;;;;;;;26.90;48.95;99008.13;5047098;28;20025;-72
2022/05/17 09:18:29;;;;;;;7.18;2.53;;;;;;;27.16;50.14;99015.00;5047010;28;20408;-72
2022/05/17 09:20:54;;;;;;;8.13;2.90;;;;;;;28.21;47.26;99021.53;5046990;28;20369;-72
2022/05/17 09:23:19;;;;;;;4.50;2.67;;;;;;;28.01;45.62;99019.66;5046937;28;20021;-72
2022/05/17 09:26:07;;;;;;;8.05;2.70;;;;;;;27.76;47.03;99012.72;5046887;28;20025;-71
2022/05/17 09:28:54;;;;;;;3.13;2.15;;;;;;;28.62;45.08;99014.34;5046877;28;20022;-71
2022/05/17 09:31:22;;;;;;;5.13;2.30;;;;;;;28.87;47.52;99011.22;5046669;28;20026;-71
2022/05/17 09:33:49;;;;;;;3.50;2.60;;;;;;;28.43;44.31;99013.31;5046760;28;20092;-71
2022/05/17 09:36:23;;;;;;;4.93;2.42;;;;;;;27.67;45.36;98994.53;5046718;28;20025;-72
2022/05/17 09:38:51;;;;;;;5.68;2.33;;;;;;;27.49;46.99;99006.88;5046720;28;20071;-72
2022/05/17 09:41:21;;;;;;;5.20;2.35;;;;;;;27.71;47.14;98998.69;5046635;28;20017;-72
2022/05/17 09:44:04;;;;;;;4.95;2.55;;;;;;;28.66;46.13;99013.09;5046536;28;20021;-72
2022/05/17 09:46:33;;;;;;;5.15;2.45;;;;;;;28.72;44.99;99007.13;5045274;28;20017;-72
2022/05/17 09:52:32;;;;;;;4.65;2.70;;;;;;;28.98;45.42;98997.56;5046476;28;20032;-72
2022/05/17 09:55:12;;;;;;;2.20;1.80;;;;;;;28.50;44.30;98995.56;5046399;28;20047;-72
2022/05/17 09:57:37;;;;;;;2.67;2.10;;;;;;;28.42;47.18;98993.53;5046322;28;20088;-72
2022/05/17 10:00:12;;;;;;;5.70;2.58;;;;;;;29.35;46.29;98987.03;5046300;28;20017;-72
2022/05/17 10:02:55;;;;;;;5.18;2.45;;;;;;;29.33;44.29;98978.22;5046417;28;20305;-72
2022/05/17 10:05:44;;;;;;;4.70;2.28;;;;;;;27.93;45.25;98978.88;5046238;28;20311;-72
2022/05/17 10:08:12;;;;;;;5.30;2.47;;;;;;;28.24;43.77;98986.09;5046174;28;20028;-72
2022/05/17 10:10:40;;;;;;;5.93;2.53;;;;;;;28.82;45.94;98980.94;5046036;28;20032;-72
2022/05/17 10:13:11;;;;;;;4.55;2.20;;;;;;;29.05;45.86;98981.66;5046099;28;20017;-72
2022/05/17 10:15:41;;;;;;;5.65;2.75;;;;;;;29.54;45.68;98978.13;5046008;28;20190;-72
2022/05/17 10:18:19;;;;;;;6.78;2.50;;;;;;;29.64;42.87;98979.03;5045908;28;20021;-72
2022/05/17 10:20:50;;;;;;;3.72;2.28;;;;;;;28.53;44.95;98974.50;5045886;28;20024;-72
2022/05/17 10:23:36;;;;;;;4.50;2.67;;;;;;;27.83;44.21;98978.75;5045877;28;20025;-72
2022/05/17 10:26:08;;;;;;;4.18;2.50;;;;;;;27.34;47.90;98959.47;5045791;28;20437;-72
2022/05/17 10:28:56;;;;;;;7.15;2.60;;;;;;;27.80;47.11;98968.19;5045750;28;20021;-72
2022/05/17 10:31:37;;;;;;;7.90;2.88;;;;;;;28.30;46.89;98961.19;5045975;28;20048;-72
2022/05/17 10:34:17;;;;;;;6.85;2.40;;;;;;;28.96;43.64;98967.06;5045683;28;20021;-72
2022/05/17 10:36:46;;;;;;;3.97;2.60;;;;;;;28.53;44.90;98963.69;5045602;28;20021;-72
2022/05/17 10:39:17;;;;;;;6.90;2.40;;;;;;;27.58;44.92;98957.44;5045559;28;20321;-72
2022/05/17 10:41:43;;;;;;;4.47;2.30;;;;;;;27.42;46.42;98964.25;5045550;28;20081;-72
2022/05/17 10:44:14;;;;;;;5.03;2.80;;;;;;;27.25;46.84;98965.63;5045453;28;20067;-72
2022/05/17 10:46:47;;;;;;;;;;;;;;;27.13;44.93;98956.66;5045851;28;20029;-72
2022/05/17 10:49:36;;;;;;;4.40;2.70;;;;;;;27.07;45.93;98957.16;5045256;28;19913;-72
2022/05/17 10:52:35;;;;;;;5.75;2.90;;;;;;;27.27;45.51;98960.94;5045313;28;20029;-72
2022/05/17 10:55:14;;;;;;;4.18;2.60;;;;;;;27.66;46.47;98957.66;5044976;28;20107;-72
2022/05/17 10:58:12;;;;;;;4.65;2.53;;;;;;;28.50;48.01;98961.22;5044864;28;20096;-72
2022/05/17 11:00:46;;;;;;;4.90;2.75;;;;;;;29.20;43.53;98953.19;5045126;28;20045;-72
2022/05/17 11:03:32;;;;;;;5.43;2.58;;;;;;;29.21;42.81;98950.31;5044996;28;20371;-72
2022/05/17 11:06:09;;;;;;;3.38;2.10;;;;;;;29.07;42.25;98939.88;5045069;28;20025;-72
2022/05/17 11:08:40;;;;;;;3.05;2.22;;;;;;;28.54;43.84;98943.72;5044959;28;20049;-72
2022/05/17 11:11:25;;;;;;;4.38;2.70;;;;;;;27.52;42.63;98939.00;5044925;28;20097;-72
2022/05/17 11:13:58;;;;;;;6.07;2.40;;;;;;;28.76;42.30;98938.13;5044878;28;20029;-72
2022/05/17 11:17:05;;;;;;;5.20;2.20;;;;;;;28.95;45.05;98935.50;5044816;28;20025;-72
2022/05/17 11:19:42;;;;;;;6.65;2.60;;;;;;;28.39;43.89;98917.09;5044709;28;20025;-72
2022/05/17 11:22:49;;;;;;;4.10;2.10;;;;;;;28.78;43.74;98921.72;5044716;28;20029;-72
2022/05/17 11:25:40;;;;;;;3.60;2.50;;;;;;;27.12;45.82;98913.53;5037621;28;20330;-72
2022/05/17 11:28:21;;;;;;;4.80;2.50;;;;;;;27.55;44.00;98922.53;5044656;28;20021;-72
2022/05/17 11:31:00;;;;;;;3.42;2.50;;;;;;;27.33;47.13;98919.06;5044491;28;20028;-72
2022/05/17 11:33:34;;;;;;;2.60;2.10;;;;;;;27.00;46.04;98917.22;5044542;28;20051;-72
2022/05/17 11:36:02;;;;;;;3.45;2.17;;;;;;;26.60;45.35;98910.56;5044476;28;20301;-72
2022/05/17 11:38:37;;;;;;;3.10;2.30;;;;;;;26.48;45.97;98908.88;5044698;28;20272;-72
2022/05/17 11:41:07;;;;;;;3.33;2.10;;;;;;;26.60;46.37;98911.44;5044660;28;20021;-72
2022/05/17 11:43:51;;;;;;;4.30;2.30;;;;;;;26.74;47.36;98904.97;5044261;28;20025;-72
2022/05/17 11:46:29;;;;;;;4.13;2.10;;;;;;;26.99;44.15;98902.00;5044514;28;20316;-72
2022/05/17 11:49:00;;;;;;;4.43;2.70;;;;;;;27.09;45.26;98900.28;5044265;28;20159;-72
2022/05/17 11:51:31;;;;;;;4.63;2.80;;;;;;;26.86;48.24;98890.50;5044183;28;20028;-72